Time;durP1;ratioP1;P1;durP2;ratioP2;P2;SDS_P1;SDS_P2;PMS_P1;PMS_P2;Temp;Humidity;BMP_temperature;BMP_pressure;BME280_temperature;BME280_humidity;BME280_pressure;Samples;Min_cycle;Max_cycle;Signal;HPM_P1;HPM_P2
2023/09/10 00:01:18;;;;;;;7.10;5.47;;;;;;;;;;10399871;28;20026;-49
2023/09/10 00:06:18;;;;;;;5.40;4.72;;;;;;;;;;10399716;28;20482;-47
2023/09/10 00:11:19;;;;;;;6.43;4.43;;;;;;;;;;10388950;28;20116;-48
2023/09/10 00:16:20;;;;;;;6.60;4.82;;;;;;;;;;10399335;28;20283;-47
2023/09/10 00:21:21;;;;;;;7.25;4.97;;;;;;;;;;10401701;28;20515;-48
2023/09/10 00:26:21;;;;;;;10.63;4.95;;;;;;;;;;10401142;28;20026;-48
2023/09/10 00:31:22;;;;;;;9.30;4.95;;;;;;;;;;10404288;28;20029;-47
2023/09/10 00:36:23;;;;;;;6.57;4.55;;;;;;;;;;10408245;28;20442;-47
2023/09/10 00:41:23;;;;;;;7.97;4.15;;;;;;;;;;10403348;28;20044;-49
2023/09/10 00:46:24;;;;;;;6.38;4.07;;;;;;;;;;10408281;28;20049;-48
2023/09/10 00:51:26;;;;;;;6.85;4.20;;;;;;;;;;10402969;28;20461;-50
2023/09/10 00:56:27;;;;;;;5.30;3.97;;;;;;;;;;10410457;28;20037;-50
2023/09/10 01:01:28;;;;;;;7.22;3.95;;;;;;;;;;10404861;28;20041;-51
2023/09/10 01:06:29;;;;;;;10.55;4.68;;;;;;;;;;10408700;28;20144;-49
2023/09/10 01:12:08;;;;;;;6.18;3.70;;;;;;;;;;10405851;28;20132;-47
2023/09/10 01:17:15;;;;;;;5.80;4.20;;;;;;;;;;10401786;28;20029;-49
2023/09/10 01:22:36;;;;;;;5.75;4.05;;;;;;;;;;10406817;28;20116;-50
2023/09/10 01:27:37;;;;;;;7.35;4.22;;;;;;;;;;10404803;28;20480;-50
2023/09/10 01:32:51;;;;;;;4.85;4.15;;;;;;;;;;10402762;28;20026;-48
2023/09/10 01:38:06;;;;;;;7.07;4.03;;;;;;;;;;10393560;28;20112;-48
2023/09/10 01:43:07;;;;;;;5.55;4.28;;;;;;;;;;10406240;28;20045;-49
2023/09/10 01:48:08;;;;;;;5.43;4.30;;;;;;;;;;10404652;28;20469;-49
2023/09/10 01:53:09;;;;;;;6.28;4.25;;;;;;;;;;10403996;28;20037;-48
2023/09/10 01:58:12;;;;;;;6.32;4.28;;;;;;;;;;10407004;28;20036;-47
2023/09/10 02:03:13;;;;;;;5.30;4.35;;;;;;;;;;10406415;28;20033;-48
2023/09/10 02:08:14;;;;;;;5.50;4.50;;;;;;;;;;10399339;28;20045;-48
2023/09/10 02:13:15;;;;;;;4.93;3.78;;;;;;;;;;10392025;28;20026;-48
2023/09/10 02:18:16;;;;;;;7.43;3.95;;;;;;;;;;10397947;28;20034;-48
2023/09/10 02:23:16;;;;;;;5.80;4.30;;;;;;;;;;10402637;28;20028;-47
2023/09/10 02:28:21;;;;;;;5.28;4.20;;;;;;;;;;10401392;28;20165;-49
2023/09/10 02:33:23;;;;;;;10.45;4.80;;;;;;;;;;10400881;28;20472;-47
2023/09/10 02:38:24;;;;;;;5.50;4.03;;;;;;;;;;10400270;28;20055;-48
2023/09/10 02:43:25;;;;;;;6.50;4.03;;;;;;;;;;10387134;28;20049;-48
2023/09/10 02:48:25;;;;;;;5.60;4.70;;;;;;;;;;10398968;28;20409;-48
2023/09/10 02:53:26;;;;;;;8.85;3.95;;;;;;;;;;10398603;28;20040;-48
2023/09/10 02:58:26;;;;;;;10.27;4.50;;;;;;;;;;10389978;28;20033;-49
2023/09/10 03:03:27;;;;;;;8.55;4.28;;;;;;;;;;10381905;28;20041;-48
2023/09/10 03:08:32;;;;;;;6.47;4.35;;;;;;;;;;10400784;28;20037;-48
2023/09/10 03:13:32;;;;;;;4.55;3.80;;;;;;;;;;10391438;28;20397;-48
2023/09/10 03:18:33;;;;;;;4.90;4.00;;;;;;;;;;10400653;28;20037;-54
2023/09/10 03:23:34;;;;;;;7.57;4.63;;;;;;;;;;10403589;28;20087;-47
2023/09/10 03:28:34;;;;;;;5.70;4.10;;;;;;;;;;10389954;28;20477;-48
2023/09/10 03:33:35;;;;;;;5.55;4.07;;;;;;;;;;10403015;28;20032;-48
2023/09/10 03:38:36;;;;;;;7.88;4.65;;;;;;;;;;10393991;28;20350;-50
2023/09/10 03:43:38;;;;;;;6.70;4.40;;;;;;;;;;10393530;28;20092;-47
2023/09/10 03:48:38;;;;;;;12.35;4.30;;;;;;;;;;10396215;28;20541;-49
2023/09/10 03:53:39;;;;;;;5.55;4.30;;;;;;;;;;10392895;28;20030;-49
2023/09/10 03:58:39;;;;;;;5.93;4.38;;;;;;;;;;10391657;28;20505;-48
2023/09/10 04:03:40;;;;;;;6.15;4.22;;;;;;;;;;10400835;28;20048;-48
2023/09/10 04:08:41;;;;;;;12.20;4.38;;;;;;;;;;10400400;28;20025;-47
2023/09/10 04:13:41;;;;;;;11.02;4.97;;;;;;;;;;10410289;28;20025;-48
2023/09/10 04:18:42;;;;;;;5.43;4.40;;;;;;;;;;10408674;28;20037;-48
2023/09/10 04:23:43;;;;;;;7.50;4.18;;;;;;;;;;10410502;28;20033;-49
2023/09/10 04:28:43;;;;;;;6.07;4.50;;;;;;;;;;10396948;28;20388;-48
2023/09/10 04:33:44;;;;;;;5.78;3.88;;;;;;;;;;10407574;28;20022;-51
2023/09/10 04:38:45;;;;;;;5.40;4.20;;;;;;;;;;10408701;28;20030;-47
2023/09/10 04:43:46;;;;;;;11.80;4.68;;;;;;;;;;10401991;28;20493;-48
2023/09/10 04:48:46;;;;;;;6.35;4.80;;;;;;;;;;10407847;28;20029;-47
2023/09/10 04:53:47;;;;;;;6.80;4.70;;;;;;;;;;10408555;28;20373;-47
2023/09/10 04:58:48;;;;;;;5.20;4.50;;;;;;;;;;10409215;28;20473;-47
2023/09/10 05:03:48;;;;;;;7.35;4.18;;;;;;;;;;10406456;28;20511;-47
2023/09/10 05:08:49;;;;;;;5.15;4.43;;;;;;;;;;10397418;28;20026;-48
2023/09/10 05:13:50;;;;;;;15.10;4.95;;;;;;;;;;10400646;28;20022;-49
2023/09/10 05:18:50;;;;;;;5.18;4.07;;;;;;;;;;10393732;28;20029;-49
2023/09/10 05:23:51;;;;;;;5.70;4.15;;;;;;;;;;10405576;28;20022;-52
2023/09/10 05:28:51;;;;;;;11.13;4.70;;;;;;;;;;10404084;28;20025;-48
2023/09/10 05:33:52;;;;;;;5.95;4.63;;;;;;;;;;10393357;28;20029;-47
2023/09/10 05:38:53;;;;;;;7.97;4.70;;;;;;;;;;10397710;28;20496;-48
2023/09/10 05:43:53;;;;;;;6.07;4.40;;;;;;;;;;10400210;28;20037;-48
2023/09/10 05:48:54;;;;;;;11.15;4.68;;;;;;;;;;10401988;28;20036;-47
2023/09/10 05:53:54;;;;;;;9.13;4.78;;;;;;;;;;10395101;28;20044;-47
2023/09/10 05:58:55;;;;;;;8.52;4.53;;;;;;;;;;10407602;28;20021;-47
2023/09/10 06:03:57;;;;;;;11.05;4.47;;;;;;;;;;10407380;28;20077;-47
2023/09/10 06:08:57;;;;;;;5.55;4.50;;;;;;;;;;10403697;28;20037;-47
2023/09/10 06:13:58;;;;;;;20.98;4.80;;;;;;;;;;10400418;28;20030;-47
2023/09/10 06:18:58;;;;;;;7.13;5.00;;;;;;;;;;10397897;28;20021;-47
2023/09/10 06:23:59;;;;;;;7.57;4.65;;;;;;;;;;10404416;28;20368;-47
2023/09/10 06:29:01;;;;;;;11.73;4.93;;;;;;;;;;10398837;28;20381;-47
2023/09/10 06:34:02;;;;;;;6.88;4.60;;;;;;;;;;10409351;28;20032;-54
2023/09/10 06:39:03;;;;;;;8.02;4.75;;;;;;;;;;10401632;28;20373;-47
2023/09/10 06:44:04;;;;;;;6.57;4.95;;;;;;;;;;10396149;28;20045;-48
2023/09/10 06:49:05;;;;;;;7.22;4.53;;;;;;;;;;10395584;28;20481;-47
2023/09/10 06:54:05;;;;;;;7.03;4.78;;;;;;;;;;10404246;28;20022;-56
2023/09/10 06:59:06;;;;;;;6.07;4.45;;;;;;;;;;10395367;28;20030;-48
2023/09/10 07:04:21;;;;;;;12.88;4.97;;;;;;;;;;10402720;28;20037;-47
2023/09/10 07:09:23;;;;;;;6.45;4.75;;;;;;;;;;10395708;28;20026;-53
2023/09/10 07:14:23;;;;;;;6.80;4.78;;;;;;;;;;10390507;28;20045;-49
2023/09/10 07:19:24;;;;;;;6.68;4.65;;;;;;;;;;10396076;28;20365;-47
2023/09/10 07:24:25;;;;;;;24.55;5.30;;;;;;;;;;10404196;28;20032;-48
2023/09/10 07:29:25;;;;;;;8.98;5.60;;;;;;;;;;10394428;28;20026;-48
2023/09/10 07:34:26;;;;;;;7.95;4.85;;;;;;;;;;10394257;28;20124;-48
2023/09/10 07:39:29;;;;;;;6.07;4.57;;;;;;;;;;10411515;28;20045;-53
2023/09/10 07:44:30;;;;;;;15.45;4.18;;;;;;;;;;10412964;28;20045;-49
2023/09/10 07:49:30;;;;;;;11.70;4.43;;;;;;;;;;10396442;28;20032;-49
2023/09/10 07:54:32;;;;;;;8.77;4.45;;;;;;;;;;10407049;28;20064;-48
2023/09/10 07:59:32;;;;;;;10.77;4.65;;;;;;;;;;10396801;28;20033;-47
2023/09/10 08:04:33;;;;;;;5.07;4.28;;;;;;;;;;10412160;28;20025;-47
2023/09/10 08:09:33;;;;;;;13.38;4.90;;;;;;;;;;10410301;28;20045;-47
2023/09/10 08:14:35;;;;;;;8.65;4.68;;;;;;;;;;10408017;28;20083;-45
2023/09/10 08:19:36;;;;;;;9.05;4.65;;;;;;;;;;10409720;28;20093;-47
2023/09/10 08:24:36;;;;;;;6.80;4.70;;;;;;;;;;10398611;28;20217;-49
2023/09/10 08:29:37;;;;;;;7.50;4.30;;;;;;;;;;10399136;28;20037;-48
2023/09/10 08:34:38;;;;;;;15.85;4.63;;;;;;;;;;10394428;28;20164;-47
2023/09/10 08:39:38;;;;;;;7.32;4.78;;;;;;;;;;10399211;28;20033;-47
2023/09/10 08:44:41;;;;;;;9.02;4.88;;;;;;;;;;10400837;28;20038;-47
2023/09/10 08:49:46;;;;;;;11.85;4.43;;;;;;;;;;10390061;28;20095;-47
2023/09/10 08:54:47;;;;;;;18.83;4.30;;;;;;;;;;10402666;28;20040;-48
2023/09/10 08:59:48;;;;;;;6.13;4.38;;;;;;;;;;10404720;28;21297;-47
2023/09/10 09:04:50;;;;;;;15.63;4.30;;;;;;;;;;10404459;28;20072;-50
2023/09/10 09:09:58;;;;;;;6.20;4.40;;;;;;;;;;10403194;28;20126;-48
2023/09/10 09:15:01;;;;;;;10.20;4.35;;;;;;;;;;10399536;28;20578;-51
2023/09/10 09:20:04;;;;;;;5.65;4.13;;;;;;;;;;10408047;28;20032;-50
2023/09/10 09:25:06;;;;;;;8.73;4.47;;;;;;;;;;10395275;28;20033;-49
2023/09/10 09:30:07;;;;;;;7.13;4.75;;;;;;;;;;10409921;28;20112;-49
2023/09/10 09:35:11;;;;;;;8.48;5.63;;;;;;;;;;10403829;28;20038;-51
2023/09/10 09:40:12;;;;;;;6.00;5.30;;;;;;;;;;10400451;28;20087;-50
2023/09/10 09:45:12;;;;;;;8.88;5.43;;;;;;;;;;10395132;28;20045;-50
2023/09/10 09:50:14;;;;;;;5.45;4.95;;;;;;;;;;10403742;28;20084;-48
2023/09/10 09:55:16;;;;;;;7.25;5.18;;;;;;;;;;10409219;28;20496;-51
2023/09/10 10:00:17;;;;;;;7.07;5.82;;;;;;;;;;10403787;28;20033;-48
2023/09/10 10:05:18;;;;;;;6.18;5.57;;;;;;;;;;10396537;28;20030;-49
2023/09/10 10:10:19;;;;;;;11.02;5.78;;;;;;;;;;10396909;28;20481;-49
2023/09/10 10:15:22;;;;;;;6.78;5.30;;;;;;;;;;10402045;28;20087;-49
2023/09/10 10:20:24;;;;;;;8.82;5.70;;;;;;;;;;10399142;28;20033;-48
2023/09/10 10:25:25;;;;;;;7.65;6.30;;;;;;;;;;10385705;28;20033;-50
2023/09/10 10:30:28;;;;;;;13.63;6.18;;;;;;;;;;10403115;28;20034;-49
2023/09/10 10:35:35;;;;;;;6.07;5.47;;;;;;;;;;10399065;28;20026;-50
2023/09/10 10:40:39;;;;;;;6.07;5.47;;;;;;;;;;10399272;28;20017;-47
2023/09/10 10:45:40;;;;;;;9.13;5.90;;;;;;;;;;10405952;28;20118;-49
2023/09/10 10:50:44;;;;;;;6.53;5.85;;;;;;;;;;10407024;28;20036;-49
2023/09/10 10:55:50;;;;;;;7.85;5.70;;;;;;;;;;10398652;28;20465;-48
2023/09/10 11:00:52;;;;;;;6.93;5.60;;;;;;;;;;10400509;28;20017;-54
2023/09/10 11:05:53;;;;;;;6.07;5.40;;;;;;;;;;10389398;28;20363;-48
2023/09/10 11:10:54;;;;;;;6.63;5.63;;;;;;;;;;10398434;28;20530;-49
2023/09/10 11:16:04;;;;;;;8.43;5.57;;;;;;;;;;10405464;28;20508;-50
2023/09/10 11:21:05;;;;;;;6.63;5.63;;;;;;;;;;10398060;28;20033;-49
2023/09/10 11:26:29;;;;;;;6.97;5.68;;;;;;;;;;10400594;28;20527;-50
2023/09/10 11:31:38;;;;;;;5.75;5.15;;;;;;;;;;10395994;28;20046;-50
2023/09/10 11:36:44;;;;;;;9.63;6.00;;;;;;;;;;10393216;28;20030;-48
2023/09/10 11:41:47;;;;;;;5.90;5.30;;;;;;;;;;10402095;28;20377;-50
2023/09/10 11:46:51;;;;;;;7.72;5.40;;;;;;;;;;10397327;28;20073;-48
2023/09/10 11:51:56;;;;;;;7.70;5.35;;;;;;;;;;10404941;28;20065;-55
2023/09/10 11:56:58;;;;;;;9.60;5.22;;;;;;;;;;10391477;28;20487;-49
2023/09/10 12:01:59;;;;;;;6.15;4.95;;;;;;;;;;10396674;28;20064;-48
2023/09/10 12:07:01;;;;;;;9.15;5.15;;;;;;;;;;10389781;28;20036;-50
2023/09/10 12:12:28;;;;;;;7.07;4.95;;;;;;;;;;10392494;28;20041;-48
2023/09/10 12:17:30;;;;;;;6.28;5.50;;;;;;;;;;10393148;28;20255;-51
2023/09/10 12:22:30;;;;;;;6.07;5.45;;;;;;;;;;10400429;28;20036;-50
2023/09/10 12:27:31;;;;;;;7.32;5.50;;;;;;;;;;10407479;28;20059;-54
2023/09/10 12:32:32;;;;;;;7.35;5.30;;;;;;;;;;10417921;28;20040;-49
2023/09/10 12:37:32;;;;;;;7.18;5.20;;;;;;;;;;10411571;28;20092;-50
2023/09/10 12:42:33;;;;;;;17.10;5.43;;;;;;;;;;10405438;28;20025;-51
2023/09/10 12:47:34;;;;;;;11.32;5.18;;;;;;;;;;10400842;28;20037;-51
2023/09/10 12:52:36;;;;;;;8.60;5.25;;;;;;;;;;10408229;28;20074;-50
2023/09/10 12:57:36;;;;;;;21.67;5.45;;;;;;;;;;10406370;28;20503;-50
2023/09/10 13:02:37;;;;;;;12.00;5.18;;;;;;;;;;10411419;28;20215;-54
2023/09/10 13:07:37;;;;;;;14.88;5.20;;;;;;;;;;10394632;28;20029;-47
2023/09/10 13:12:39;;;;;;;8.43;5.00;;;;;;;;;;10403709;28;20040;-47
2023/09/10 13:17:39;;;;;;;8.52;4.47;;;;;;;;;;10395934;28;20030;-55
2023/09/10 13:22:40;;;;;;;5.32;4.47;;;;;;;;;;10409653;28;20027;-46
2023/09/10 13:27:40;;;;;;;5.72;4.15;;;;;;;;;;10403201;28;20034;-47
2023/09/10 13:32:41;;;;;;;5.90;3.78;;;;;;;;;;10400717;28;20668;-47
2023/09/10 13:37:42;;;;;;;9.82;4.32;;;;;;;;;;10406608;28;20481;-59
2023/09/10 13:42:43;;;;;;;13.30;4.25;;;;;;;;;;10409527;28;20438;-47
2023/09/10 13:47:43;;;;;;;9.23;3.83;;;;;;;;;;10402262;28;20072;-48
2023/09/10 13:52:44;;;;;;;6.63;4.32;;;;;;;;;;10409485;28;20400;-58
2023/09/10 13:57:44;;;;;;;7.13;4.20;;;;;;;;;;10409825;28;20076;-48
2023/09/10 14:02:45;;;;;;;7.97;4.28;;;;;;;;;;10408672;28;20025;-46
2023/09/10 14:07:45;;;;;;;10.48;3.97;;;;;;;;;;10406798;28;20045;-46
2023/09/10 14:12:46;;;;;;;10.65;4.10;;;;;;;;;;10396441;28;20059;-46
2023/09/10 14:17:48;;;;;;;6.07;4.22;;;;;;;;;;10402378;28;20045;-46
2023/09/10 14:22:49;;;;;;;4.90;4.03;;;;;;;;;;10407061;28;20026;-48
2023/09/10 14:27:50;;;;;;;12.27;4.30;;;;;;;;;;10405347;28;20405;-47
2023/09/10 14:32:50;;;;;;;17.25;4.25;;;;;;;;;;10406815;28;20032;-46
2023/09/10 14:37:51;;;;;;;5.22;3.95;;;;;;;;;;10404357;28;20052;-46
2023/09/10 14:42:52;;;;;;;8.68;4.00;;;;;;;;;;10397356;28;20034;-46
2023/09/10 14:47:52;;;;;;;4.80;3.75;;;;;;;;;;10407772;28;20057;-46
2023/09/10 14:52:53;;;;;;;4.82;4.15;;;;;;;;;;10408291;28;20272;-47
2023/09/10 14:57:54;;;;;;;6.30;3.58;;;;;;;;;;10394453;28;20025;-46
2023/09/10 15:02:54;;;;;;;5.05;4.03;;;;;;;;;;10406442;28;20034;-58
2023/09/10 15:07:55;;;;;;;5.00;3.83;;;;;;;;;;10403014;28;20062;-46
2023/09/10 15:12:55;;;;;;;4.55;3.88;;;;;;;;;;10412019;28;20472;-53
2023/09/10 15:17:56;;;;;;;7.90;4.28;;;;;;;;;;10399705;28;20489;-46
2023/09/10 15:22:56;;;;;;;5.82;4.07;;;;;;;;;;10399018;28;20040;-46
2023/09/10 15:27:57;;;;;;;12.50;3.80;;;;;;;;;;10404995;28;20067;-48
2023/09/10 15:32:58;;;;;;;6.18;4.25;;;;;;;;;;10400198;28;20113;-46
2023/09/10 15:37:58;;;;;;;6.35;4.13;;;;;;;;;;10388790;28;20029;-46
2023/09/10 15:42:59;;;;;;;5.28;4.30;;;;;;;;;;10405534;28;20038;-46
2023/09/10 15:47:59;;;;;;;6.18;4.22;;;;;;;;;;10402433;28;20064;-46
2023/09/10 15:53:00;;;;;;;5.78;4.43;;;;;;;;;;10402775;28;20026;-47
2023/09/10 15:58:01;;;;;;;6.72;4.07;;;;;;;;;;10405950;28;20044;-46
2023/09/10 16:03:02;;;;;;;4.30;3.83;;;;;;;;;;10413379;28;20021;-46
2023/09/10 16:08:03;;;;;;;5.38;4.13;;;;;;;;;;10413302;28;20025;-46
2023/09/10 16:13:05;;;;;;;6.55;3.97;;;;;;;;;;10412298;28;20494;-46
2023/09/10 16:18:05;;;;;;;6.28;4.07;;;;;;;;;;10412751;28;20362;-47
2023/09/10 16:23:06;;;;;;;6.22;3.67;;;;;;;;;;10411870;28;20049;-46
2023/09/10 16:28:07;;;;;;;5.22;3.20;;;;;;;;;;10412329;28;20029;-47
2023/09/10 16:33:07;;;;;;;4.95;4.22;;;;;;;;;;10411948;28;20025;-46
2023/09/10 16:38:08;;;;;;;4.35;3.58;;;;;;;;;;10411020;28;20029;-46
2023/09/10 16:43:08;;;;;;;11.27;3.85;;;;;;;;;;10412476;28;20079;-46
2023/09/10 16:48:09;;;;;;;5.38;4.28;;;;;;;;;;10410917;28;20029;-46
2023/09/10 16:53:10;;;;;;;6.78;4.13;;;;;;;;;;10411490;28;20079;-46
2023/09/10 16:58:10;;;;;;;8.82;3.88;;;;;;;;;;10411161;28;20026;-46
2023/09/10 17:03:11;;;;;;;4.35;3.65;;;;;;;;;;10411173;28;20543;-49
2023/09/10 17:08:11;;;;;;;4.45;4.05;;;;;;;;;;10410190;28;20477;-46
2023/09/10 17:13:14;;;;;;;4.20;3.72;;;;;;;;;;10409280;28;20493;-47
2023/09/10 17:18:15;;;;;;;4.63;3.45;;;;;;;;;;10410440;28;20041;-46
2023/09/10 17:23:15;;;;;;;3.83;3.33;;;;;;;;;;10411084;28;20029;-47
2023/09/10 17:28:17;;;;;;;4.38;3.80;;;;;;;;;;10410253;28;20025;-47
2023/09/10 17:33:17;;;;;;;4.07;3.10;;;;;;;;;;10410062;28;20489;-46
2023/09/10 17:38:18;;;;;;;4.75;4.03;;;;;;;;;;10409496;28;20021;-47
2023/09/10 17:43:19;;;;;;;4.93;3.60;;;;;;;;;;10409683;28;20511;-47
2023/09/10 17:48:19;;;;;;;4.35;3.90;;;;;;;;;;10409288;28;20029;-46
2023/09/10 17:53:20;;;;;;;4.22;3.40;;;;;;;;;;10409396;28;20057;-47
2023/09/10 17:58:20;;;;;;;3.90;3.30;;;;;;;;;;10406309;28;20025;-47
2023/09/10 18:03:21;;;;;;;4.88;3.58;;;;;;;;;;10407689;28;20037;-47
2023/09/10 18:08:22;;;;;;;4.97;3.70;;;;;;;;;;10399005;28;20513;-46
2023/09/10 18:13:22;;;;;;;4.57;3.90;;;;;;;;;;10394071;28;20029;-48
2023/09/10 18:18:24;;;;;;;5.68;3.92;;;;;;;;;;10387495;28;20259;-47
2023/09/10 18:23:24;;;;;;;4.63;3.50;;;;;;;;;;10405426;28;20033;-48
2023/09/10 18:28:25;;;;;;;4.85;3.53;;;;;;;;;;10387370;28;20034;-47
2023/09/10 18:33:26;;;;;;;8.88;4.32;;;;;;;;;;10417900;28;20449;-47
2023/09/10 18:38:26;;;;;;;7.25;4.10;;;;;;;;;;10418062;28;20385;-47
2023/09/10 18:43:27;;;;;;;5.38;3.55;;;;;;;;;;10406159;28;20067;-49
2023/09/10 18:48:27;;;;;;;11.57;4.72;;;;;;;;;;10405610;28;20029;-47
2023/09/10 18:53:28;;;;;;;10.40;4.30;;;;;;;;;;10405198;28;20037;-47
2023/09/10 18:58:28;;;;;;;7.30;3.75;;;;;;;;;;10406729;28;20045;-46
2023/09/10 19:03:29;;;;;;;14.30;4.00;;;;;;;;;;10406787;28;20045;-47
2023/09/10 19:08:30;;;;;;;7.85;3.92;;;;;;;;;;10401372;28;20076;-47
2023/09/10 19:13:30;;;;;;;4.45;3.70;;;;;;;;;;10398873;28;20116;-47
2023/09/10 19:18:31;;;;;;;14.40;4.30;;;;;;;;;;10393586;28;20030;-47
2023/09/10 19:23:32;;;;;;;6.00;4.05;;;;;;;;;;10386354;28;20415;-52
2023/09/10 19:28:32;;;;;;;5.97;3.50;;;;;;;;;;10393521;28;20025;-48
2023/09/10 19:33:33;;;;;;;11.15;4.47;;;;;;;;;;10390541;28;20032;-50
2023/09/10 19:38:33;;;;;;;16.55;4.82;;;;;;;;;;10392161;28;20056;-47
2023/09/10 19:43:34;;;;;;;26.23;4.60;;;;;;;;;;10383694;28;20038;-53
2023/09/10 19:48:35;;;;;;;11.07;4.32;;;;;;;;;;10383764;28;20029;-50
2023/09/10 19:53:35;;;;;;;14.85;5.15;;;;;;;;;;10385919;28;20606;-47
2023/09/10 19:58:37;;;;;;;9.75;4.38;;;;;;;;;;10398800;28;20095;-46
2023/09/10 20:03:38;;;;;;;11.88;4.88;;;;;;;;;;10396261;28;20060;-46
2023/09/10 20:08:39;;;;;;;14.73;4.68;;;;;;;;;;10385392;28;20042;-47
2023/09/10 20:13:39;;;;;;;7.07;4.22;;;;;;;;;;10391286;28;20029;-56
2023/09/10 20:18:40;;;;;;;9.50;4.40;;;;;;;;;;10386736;28;20029;-47
2023/09/10 20:23:40;;;;;;;10.52;4.53;;;;;;;;;;10400390;28;20025;-47
2023/09/10 20:28:41;;;;;;;12.98;4.93;;;;;;;;;;10395467;28;21032;-47
2023/09/10 20:33:42;;;;;;;7.50;4.38;;;;;;;;;;10393551;28;20018;-47
2023/09/10 20:38:42;;;;;;;9.50;5.05;;;;;;;;;;10393227;28;20369;-47
2023/09/10 20:43:43;;;;;;;8.63;5.00;;;;;;;;;;10403745;28;20049;-46
2023/09/10 20:48:43;;;;;;;15.65;5.47;;;;;;;;;;10406300;28;20048;-48
2023/09/10 20:53:44;;;;;;;7.60;5.45;;;;;;;;;;10400279;28;20025;-48
2023/09/10 20:58:45;;;;;;;10.88;5.47;;;;;;;;;;10398575;28;20473;-49
2023/09/10 21:03:45;;;;;;;8.65;5.65;;;;;;;;;;10406251;28;20555;-50
2023/09/10 21:08:48;;;;;;;13.07;5.68;;;;;;;;;;10409070;28;20040;-49
2023/09/10 21:13:50;;;;;;;8.05;6.50;;;;;;;;;;10406570;28;20037;-50
2023/09/10 21:18:51;;;;;;;9.48;6.00;;;;;;;;;;10401515;28;20040;-48
2023/09/10 21:23:51;;;;;;;8.77;5.90;;;;;;;;;;10402340;28;20041;-51
2023/09/10 21:28:52;;;;;;;9.38;6.22;;;;;;;;;;10400992;28;20045;-50
2023/09/10 21:33:52;;;;;;;8.57;6.80;;;;;;;;;;10402919;28;20017;-47
2023/09/10 21:38:53;;;;;;;15.35;7.38;;;;;;;;;;10402745;28;20078;-48
2023/09/10 21:43:53;;;;;;;26.58;7.35;;;;;;;;;;10415593;28;20041;-47
2023/09/10 21:48:55;;;;;;;15.73;6.80;;;;;;;;;;10406756;28;20076;-49
2023/09/10 21:53:55;;;;;;;14.90;7.13;;;;;;;;;;10407854;28;20156;-47
2023/09/10 21:58:56;;;;;;;11.73;7.95;;;;;;;;;;10429130;28;20059;-47
2023/09/10 22:03:57;;;;;;;15.82;8.13;;;;;;;;;;10396062;28;20028;-48
2023/09/10 22:08:57;;;;;;;17.17;8.05;;;;;;;;;;10408524;28;20028;-48
2023/09/10 22:13:58;;;;;;;10.35;7.57;;;;;;;;;;10408994;28;20034;-49
2023/09/10 22:18:59;;;;;;;13.30;7.95;;;;;;;;;;10405973;28;20037;-50
2023/09/10 22:23:59;;;;;;;9.68;7.47;;;;;;;;;;10406601;28;20104;-48
2023/09/10 22:29:00;;;;;;;16.35;7.53;;;;;;;;;;10406730;28;20036;-51
2023/09/10 22:34:01;;;;;;;16.38;7.30;;;;;;;;;;10395228;28;20026;-49
2023/09/10 22:39:01;;;;;;;9.95;6.93;;;;;;;;;;10394707;28;20029;-49
2023/09/10 22:44:02;;;;;;;11.50;6.18;;;;;;;;;;10407687;28;20203;-47
2023/09/10 22:49:04;;;;;;;8.52;6.00;;;;;;;;;;10406392;28;20040;-49
2023/09/10 22:54:05;;;;;;;6.18;5.57;;;;;;;;;;10405877;28;20503;-47
2023/09/10 22:59:07;;;;;;;9.25;5.32;;;;;;;;;;10405226;28;20041;-48
2023/09/10 23:04:07;;;;;;;7.57;5.28;;;;;;;;;;10407573;28;20108;-47
2023/09/10 23:09:08;;;;;;;9.00;5.72;;;;;;;;;;10406494;28;20440;-48
2023/09/10 23:14:08;;;;;;;7.03;5.55;;;;;;;;;;10404677;28;20432;-53
2023/09/10 23:19:12;;;;;;;8.82;5.70;;;;;;;;;;10405342;28;20366;-50
2023/09/10 23:24:12;;;;;;;5.88;5.28;;;;;;;;;;10405375;28;20065;-49
2023/09/10 23:29:13;;;;;;;9.32;5.85;;;;;;;;;;10406432;28;20029;-48
2023/09/10 23:34:19;;;;;;;12.02;5.63;;;;;;;;;;10404872;28;20034;-49
2023/09/10 23:39:19;;;;;;;11.77;5.88;;;;;;;;;;10405595;28;20033;-47
2023/09/10 23:44:20;;;;;;;7.75;5.57;;;;;;;;;;10405872;28;20038;-48
2023/09/10 23:49:20;;;;;;;8.07;5.85;;;;;;;;;;10401266;28;20456;-48
2023/09/10 23:54:21;;;;;;;7.45;5.50;;;;;;;;;;10405550;28;20451;-47
2023/09/10 23:59:21;;;;;;;9.35;5.93;;;;;;;;;;10403482;28;20030;-47
